sensor_id;sensor_type;location;lat;lon;timestamp;P1;durP1;ratioP1;P2;durP2;ratioP2
78772;SDS011;68111;44.728;11.290;2023-06-10T00:00:44;155.93;;;61.40;;
78772;SDS011;68111;44.728;11.290;2023-06-10T00:03:10;140.88;;;60.70;;
78772;SDS011;68111;44.728;11.290;2023-06-10T00:05:39;145.55;;;62.67;;
78772;SDS011;68111;44.728;11.290;2023-06-10T00:08:05;122.25;;;56.03;;
78772;SDS011;68111;44.728;11.290;2023-06-10T00:10:37;128.50;;;56.10;;
78772;SDS011;68111;44.728;11.290;2023-06-10T00:13:05;79.03;;;45.72;;
78772;SDS011;68111;44.728;11.290;2023-06-10T00:15:35;68.43;;;42.47;;
78772;SDS011;68111;44.728;11.290;2023-06-10T00:18:02;35.00;;;25.55;;
78772;SDS011;68111;44.728;11.290;2023-06-10T00:20:30;39.65;;;28.55;;
78772;SDS011;68111;44.728;11.290;2023-06-10T00:23:00;38.72;;;28.27;;
78772;SDS011;68111;44.728;11.290;2023-06-10T00:27:54;32.80;;;24.25;;
78772;SDS011;68111;44.728;11.290;2023-06-10T00:30:21;31.80;;;23.23;;
78772;SDS011;68111;44.728;11.290;2023-06-10T00:32:48;27.33;;;22.17;;
78772;SDS011;68111;44.728;11.290;2023-06-10T00:35:15;25.02;;;19.10;;
78772;SDS011;68111;44.728;11.290;2023-06-10T00:37:42;23.85;;;19.05;;
78772;SDS011;68111;44.728;11.290;2023-06-10T00:40:09;25.58;;;19.40;;
78772;SDS011;68111;44.728;11.290;2023-06-10T00:42:36;23.10;;;18.73;;
78772;SDS011;68111;44.728;11.290;2023-06-10T00:45:03;25.27;;;19.52;;
78772;SDS011;68111;44.728;11.290;2023-06-10T00:47:30;22.15;;;18.45;;
78772;SDS011;68111;44.728;11.290;2023-06-10T00:49:58;26.23;;;20.65;;
78772;SDS011;68111;44.728;11.290;2023-06-10T00:52:26;27.90;;;20.90;;
78772;SDS011;68111;44.728;11.290;2023-06-10T00:54:54;24.10;;;18.87;;
78772;SDS011;68111;44.728;11.290;2023-06-10T00:57:21;25.23;;;19.33;;
78772;SDS011;68111;44.728;11.290;2023-06-10T00:59:48;23.10;;;17.65;;
78772;SDS011;68111;44.728;11.290;2023-06-10T01:02:15;23.40;;;17.48;;
78772;SDS011;68111;44.728;11.290;2023-06-10T01:04:43;20.40;;;15.55;;
78772;SDS011;68111;44.728;11.290;2023-06-10T01:09:56;24.73;;;18.08;;
78772;SDS011;68111;44.728;11.290;2023-06-10T01:15:16;22.55;;;16.55;;
78772;SDS011;68111;44.728;11.290;2023-06-10T01:17:57;19.90;;;15.00;;
78772;SDS011;68111;44.728;11.290;2023-06-10T01:20:31;28.58;;;17.75;;
78772;SDS011;68111;44.728;11.290;2023-06-10T01:22:59;23.10;;;16.55;;
78772;SDS011;68111;44.728;11.290;2023-06-10T01:25:27;20.73;;;13.73;;
78772;SDS011;68111;44.728;11.290;2023-06-10T01:27:57;14.85;;;11.57;;
78772;SDS011;68111;44.728;11.290;2023-06-10T01:30:37;16.08;;;11.60;;
78772;SDS011;68111;44.728;11.290;2023-06-10T01:33:18;16.27;;;12.02;;
78772;SDS011;68111;44.728;11.290;2023-06-10T01:35:55;15.38;;;11.40;;
78772;SDS011;68111;44.728;11.290;2023-06-10T01:38:25;22.67;;;14.40;;
78772;SDS011;68111;44.728;11.290;2023-06-10T01:40:53;19.17;;;14.88;;
78772;SDS011;68111;44.728;11.290;2023-06-10T01:43:23;19.00;;;14.02;;
78772;SDS011;68111;44.728;11.290;2023-06-10T01:45:50;18.85;;;14.02;;
78772;SDS011;68111;44.728;11.290;2023-06-10T01:48:16;16.30;;;12.57;;
78772;SDS011;68111;44.728;11.290;2023-06-10T01:50:43;17.75;;;13.68;;
78772;SDS011;68111;44.728;11.290;2023-06-10T01:53:10;17.45;;;14.10;;
78772;SDS011;68111;44.728;11.290;2023-06-10T01:55:37;18.40;;;13.52;;
78772;SDS011;68111;44.728;11.290;2023-06-10T01:58:04;18.48;;;14.43;;
78772;SDS011;68111;44.728;11.290;2023-06-10T02:00:30;18.50;;;14.68;;
78772;SDS011;68111;44.728;11.290;2023-06-10T02:02:57;22.15;;;17.20;;
78772;SDS011;68111;44.728;11.290;2023-06-10T02:05:24;23.67;;;18.33;;
78772;SDS011;68111;44.728;11.290;2023-06-10T02:07:51;23.17;;;18.30;;
78772;SDS011;68111;44.728;11.290;2023-06-10T02:10:17;24.15;;;18.55;;
78772;SDS011;68111;44.728;11.290;2023-06-10T02:12:44;22.27;;;18.02;;
78772;SDS011;68111;44.728;11.290;2023-06-10T02:15:11;23.67;;;18.63;;
78772;SDS011;68111;44.728;11.290;2023-06-10T02:17:37;26.27;;;20.63;;
78772;SDS011;68111;44.728;11.290;2023-06-10T02:20:05;28.30;;;22.52;;
78772;SDS011;68111;44.728;11.290;2023-06-10T02:22:33;25.60;;;18.58;;
78772;SDS011;68111;44.728;11.290;2023-06-10T02:25:00;19.92;;;15.75;;
78772;SDS011;68111;44.728;11.290;2023-06-10T02:27:26;20.08;;;14.98;;
78772;SDS011;68111;44.728;11.290;2023-06-10T02:29:54;19.75;;;14.82;;
78772;SDS011;68111;44.728;11.290;2023-06-10T02:32:21;18.40;;;13.98;;
78772;SDS011;68111;44.728;11.290;2023-06-10T02:34:50;17.50;;;13.43;;
78772;SDS011;68111;44.728;11.290;2023-06-10T02:37:17;16.05;;;10.77;;
78772;SDS011;68111;44.728;11.290;2023-06-10T02:39:44;14.38;;;9.25;;
78772;SDS011;68111;44.728;11.290;2023-06-10T02:42:12;12.52;;;7.18;;
78772;SDS011;68111;44.728;11.290;2023-06-10T02:44:38;9.05;;;4.90;;
78772;SDS011;68111;44.728;11.290;2023-06-10T02:47:09;9.30;;;4.97;;
78772;SDS011;68111;44.728;11.290;2023-06-10T02:49:37;8.57;;;4.20;;
78772;SDS011;68111;44.728;11.290;2023-06-10T02:52:03;6.03;;;3.90;;
78772;SDS011;68111;44.728;11.290;2023-06-10T02:54:31;7.13;;;3.70;;
78772;SDS011;68111;44.728;11.290;2023-06-10T02:56:58;6.75;;;4.10;;
78772;SDS011;68111;44.728;11.290;2023-06-10T02:59:27;7.22;;;4.03;;
78772;SDS011;68111;44.728;11.290;2023-06-10T03:01:55;6.07;;;4.32;;
78772;SDS011;68111;44.728;11.290;2023-06-10T03:04:23;6.18;;;3.65;;
78772;SDS011;68111;44.728;11.290;2023-06-10T03:06:59;8.70;;;5.25;;
78772;SDS011;68111;44.728;11.290;2023-06-10T03:09:30;9.68;;;6.57;;
78772;SDS011;68111;44.728;11.290;2023-06-10T03:11:59;12.70;;;8.88;;
78772;SDS011;68111;44.728;11.290;2023-06-10T03:14:30;16.08;;;12.80;;
78772;SDS011;68111;44.728;11.290;2023-06-10T03:16:58;17.95;;;14.23;;
78772;SDS011;68111;44.728;11.290;2023-06-10T03:19:26;16.85;;;13.30;;
78772;SDS011;68111;44.728;11.290;2023-06-10T03:22:06;18.08;;;14.32;;
78772;SDS011;68111;44.728;11.290;2023-06-10T03:24:37;19.10;;;14.77;;
78772;SDS011;68111;44.728;11.290;2023-06-10T03:27:08;19.65;;;15.13;;
78772;SDS011;68111;44.728;11.290;2023-06-10T03:29:39;20.63;;;14.75;;
78772;SDS011;68111;44.728;11.290;2023-06-10T03:32:06;19.25;;;15.50;;
78772;SDS011;68111;44.728;11.290;2023-06-10T03:34:35;19.05;;;14.73;;
78772;SDS011;68111;44.728;11.290;2023-06-10T03:37:02;22.10;;;15.27;;
78772;SDS011;68111;44.728;11.290;2023-06-10T03:39:29;18.63;;;14.13;;
78772;SDS011;68111;44.728;11.290;2023-06-10T03:41:58;18.25;;;14.30;;
78772;SDS011;68111;44.728;11.290;2023-06-10T03:44:29;21.58;;;15.63;;
78772;SDS011;68111;44.728;11.290;2023-06-10T03:46:55;18.48;;;14.68;;
78772;SDS011;68111;44.728;11.290;2023-06-10T03:49:25;20.27;;;15.88;;
78772;SDS011;68111;44.728;11.290;2023-06-10T03:51:55;20.15;;;15.43;;
78772;SDS011;68111;44.728;11.290;2023-06-10T03:54:22;18.33;;;13.95;;
78772;SDS011;68111;44.728;11.290;2023-06-10T03:56:49;18.02;;;14.10;;
78772;SDS011;68111;44.728;11.290;2023-06-10T03:59:15;20.80;;;15.52;;
78772;SDS011;68111;44.728;11.290;2023-06-10T04:01:42;21.42;;;15.80;;
78772;SDS011;68111;44.728;11.290;2023-06-10T04:04:13;20.33;;;15.48;;
78772;SDS011;68111;44.728;11.290;2023-06-10T04:06:43;22.05;;;15.65;;
78772;SDS011;68111;44.728;11.290;2023-06-10T04:09:11;23.20;;;16.20;;
78772;SDS011;68111;44.728;11.290;2023-06-10T04:11:39;23.75;;;15.98;;
78772;SDS011;68111;44.728;11.290;2023-06-10T04:14:06;20.85;;;14.80;;
78772;SDS011;68111;44.728;11.290;2023-06-10T04:16:34;22.73;;;15.40;;
78772;SDS011;68111;44.728;11.290;2023-06-10T04:19:02;22.05;;;15.98;;
78772;SDS011;68111;44.728;11.290;2023-06-10T04:21:29;20.02;;;15.30;;
78772;SDS011;68111;44.728;11.290;2023-06-10T04:23:56;20.45;;;14.82;;
78772;SDS011;68111;44.728;11.290;2023-06-10T04:26:23;19.13;;;14.45;;
78772;SDS011;68111;44.728;11.290;2023-06-10T04:28:51;20.13;;;14.20;;
78772;SDS011;68111;44.728;11.290;2023-06-10T04:31:18;19.23;;;14.32;;
78772;SDS011;68111;44.728;11.290;2023-06-10T04:33:46;21.58;;;14.40;;
78772;SDS011;68111;44.728;11.290;2023-06-10T04:36:13;20.75;;;14.45;;
78772;SDS011;68111;44.728;11.290;2023-06-10T04:38:41;21.88;;;15.23;;
78772;SDS011;68111;44.728;11.290;2023-06-10T04:41:08;19.35;;;14.85;;
78772;SDS011;68111;44.728;11.290;2023-06-10T04:43:35;21.98;;;14.88;;
78772;SDS011;68111;44.728;11.290;2023-06-10T04:46:03;21.60;;;16.02;;
78772;SDS011;68111;44.728;11.290;2023-06-10T04:48:35;22.42;;;16.30;;
78772;SDS011;68111;44.728;11.290;2023-06-10T04:51:03;19.10;;;14.55;;
78772;SDS011;68111;44.728;11.290;2023-06-10T04:53:29;24.25;;;16.35;;
78772;SDS011;68111;44.728;11.290;2023-06-10T04:55:57;21.55;;;16.08;;
78772;SDS011;68111;44.728;11.290;2023-06-10T04:58:24;21.50;;;17.08;;
78772;SDS011;68111;44.728;11.290;2023-06-10T05:00:51;27.25;;;18.45;;
78772;SDS011;68111;44.728;11.290;2023-06-10T05:03:18;22.75;;;17.42;;
78772;SDS011;68111;44.728;11.290;2023-06-10T05:05:44;22.98;;;18.13;;
78772;SDS011;68111;44.728;11.290;2023-06-10T05:08:11;23.85;;;18.02;;
78772;SDS011;68111;44.728;11.290;2023-06-10T05:10:38;24.85;;;18.98;;
78772;SDS011;68111;44.728;11.290;2023-06-10T05:13:04;25.50;;;19.05;;
78772;SDS011;68111;44.728;11.290;2023-06-10T05:15:31;23.35;;;18.27;;
78772;SDS011;68111;44.728;11.290;2023-06-10T05:17:58;24.48;;;18.95;;
78772;SDS011;68111;44.728;11.290;2023-06-10T05:20:25;29.38;;;20.90;;
78772;SDS011;68111;44.728;11.290;2023-06-10T05:22:53;24.02;;;18.83;;
78772;SDS011;68111;44.728;11.290;2023-06-10T05:25:20;26.63;;;20.23;;
78772;SDS011;68111;44.728;11.290;2023-06-10T05:27:47;24.90;;;19.65;;
78772;SDS011;68111;44.728;11.290;2023-06-10T05:30:14;28.23;;;20.95;;
78772;SDS011;68111;44.728;11.290;2023-06-10T05:32:41;27.83;;;20.08;;
78772;SDS011;68111;44.728;11.290;2023-06-10T05:35:08;27.38;;;20.80;;
78772;SDS011;68111;44.728;11.290;2023-06-10T05:37:35;26.02;;;20.38;;
78772;SDS011;68111;44.728;11.290;2023-06-10T05:40:03;26.15;;;19.80;;
78772;SDS011;68111;44.728;11.290;2023-06-10T05:42:31;24.25;;;19.50;;
78772;SDS011;68111;44.728;11.290;2023-06-10T05:44:57;26.00;;;19.95;;
78772;SDS011;68111;44.728;11.290;2023-06-10T05:47:24;23.95;;;19.05;;
78772;SDS011;68111;44.728;11.290;2023-06-10T05:49:51;27.33;;;19.85;;
78772;SDS011;68111;44.728;11.290;2023-06-10T05:52:18;26.85;;;21.45;;
78772;SDS011;68111;44.728;11.290;2023-06-10T05:54:45;26.45;;;19.67;;
78772;SDS011;68111;44.728;11.290;2023-06-10T05:57:12;26.45;;;20.45;;
78772;SDS011;68111;44.728;11.290;2023-06-10T05:59:38;26.90;;;20.80;;
78772;SDS011;68111;44.728;11.290;2023-06-10T06:02:05;27.08;;;20.58;;
78772;SDS011;68111;44.728;11.290;2023-06-10T06:04:32;27.33;;;20.17;;
78772;SDS011;68111;44.728;11.290;2023-06-10T06:06:59;23.58;;;19.40;;
78772;SDS011;68111;44.728;11.290;2023-06-10T06:09:26;28.55;;;21.38;;
78772;SDS011;68111;44.728;11.290;2023-06-10T06:11:53;26.42;;;19.67;;
78772;SDS011;68111;44.728;11.290;2023-06-10T06:14:20;25.15;;;19.88;;
78772;SDS011;68111;44.728;11.290;2023-06-10T06:16:46;25.40;;;20.55;;
78772;SDS011;68111;44.728;11.290;2023-06-10T06:19:13;26.08;;;19.77;;
78772;SDS011;68111;44.728;11.290;2023-06-10T06:21:40;25.63;;;20.77;;
78772;SDS011;68111;44.728;11.290;2023-06-10T06:24:07;27.48;;;21.13;;
78772;SDS011;68111;44.728;11.290;2023-06-10T06:26:33;26.38;;;20.88;;
78772;SDS011;68111;44.728;11.290;2023-06-10T06:29:00;26.35;;;20.08;;
78772;SDS011;68111;44.728;11.290;2023-06-10T06:31:27;26.05;;;20.70;;
78772;SDS011;68111;44.728;11.290;2023-06-10T06:33:54;26.05;;;20.13;;
78772;SDS011;68111;44.728;11.290;2023-06-10T06:36:21;26.95;;;20.63;;
78772;SDS011;68111;44.728;11.290;2023-06-10T06:38:47;26.48;;;20.42;;
78772;SDS011;68111;44.728;11.290;2023-06-10T06:41:14;23.48;;;19.25;;
78772;SDS011;68111;44.728;11.290;2023-06-10T06:43:41;25.33;;;19.50;;
78772;SDS011;68111;44.728;11.290;2023-06-10T06:46:22;26.05;;;19.60;;
78772;SDS011;68111;44.728;11.290;2023-06-10T06:48:49;23.15;;;19.25;;
78772;SDS011;68111;44.728;11.290;2023-06-10T06:51:16;25.80;;;19.75;;
78772;SDS011;68111;44.728;11.290;2023-06-10T06:53:43;23.88;;;19.15;;
78772;SDS011;68111;44.728;11.290;2023-06-10T06:56:11;24.00;;;18.88;;
78772;SDS011;68111;44.728;11.290;2023-06-10T06:58:38;24.50;;;18.75;;
78772;SDS011;68111;44.728;11.290;2023-06-10T07:01:05;23.85;;;19.40;;
78772;SDS011;68111;44.728;11.290;2023-06-10T07:03:32;26.02;;;19.73;;
78772;SDS011;68111;44.728;11.290;2023-06-10T07:05:59;26.58;;;20.42;;
78772;SDS011;68111;44.728;11.290;2023-06-10T07:08:25;25.30;;;20.17;;
78772;SDS011;68111;44.728;11.290;2023-06-10T07:10:52;26.00;;;19.25;;
78772;SDS011;68111;44.728;11.290;2023-06-10T07:13:20;24.90;;;18.67;;
78772;SDS011;68111;44.728;11.290;2023-06-10T07:15:47;23.60;;;18.33;;
78772;SDS011;68111;44.728;11.290;2023-06-10T07:18:14;24.35;;;19.02;;
78772;SDS011;68111;44.728;11.290;2023-06-10T07:20:43;23.98;;;18.80;;
78772;SDS011;68111;44.728;11.290;2023-06-10T07:23:10;23.88;;;18.48;;
78772;SDS011;68111;44.728;11.290;2023-06-10T07:25:37;23.35;;;18.65;;
78772;SDS011;68111;44.728;11.290;2023-06-10T07:28:03;24.65;;;18.17;;
78772;SDS011;68111;44.728;11.290;2023-06-10T07:30:30;23.50;;;17.85;;
78772;SDS011;68111;44.728;11.290;2023-06-10T07:32:57;22.40;;;17.02;;
78772;SDS011;68111;44.728;11.290;2023-06-10T07:35:24;21.58;;;17.02;;
78772;SDS011;68111;44.728;11.290;2023-06-10T07:37:51;22.33;;;16.70;;
78772;SDS011;68111;44.728;11.290;2023-06-10T07:40:18;23.70;;;17.13;;
78772;SDS011;68111;44.728;11.290;2023-06-10T07:42:44;21.63;;;16.13;;
78772;SDS011;68111;44.728;11.290;2023-06-10T07:45:11;21.13;;;17.15;;
78772;SDS011;68111;44.728;11.290;2023-06-10T07:47:38;21.85;;;15.13;;
78772;SDS011;68111;44.728;11.290;2023-06-10T07:50:05;20.23;;;14.43;;
78772;SDS011;68111;44.728;11.290;2023-06-10T07:52:32;22.65;;;14.85;;
78772;SDS011;68111;44.728;11.290;2023-06-10T07:54:59;19.98;;;14.27;;
78772;SDS011;68111;44.728;11.290;2023-06-10T07:57:25;17.80;;;12.85;;
78772;SDS011;68111;44.728;11.290;2023-06-10T07:59:52;17.17;;;13.05;;
78772;SDS011;68111;44.728;11.290;2023-06-10T08:02:21;15.85;;;13.30;;
78772;SDS011;68111;44.728;11.290;2023-06-10T08:04:51;18.33;;;13.48;;
78772;SDS011;68111;44.728;11.290;2023-06-10T08:07:17;18.45;;;12.93;;
78772;SDS011;68111;44.728;11.290;2023-06-10T08:09:45;18.20;;;13.13;;
78772;SDS011;68111;44.728;11.290;2023-06-10T08:12:12;18.88;;;13.10;;
78772;SDS011;68111;44.728;11.290;2023-06-10T08:14:41;16.00;;;12.85;;
78772;SDS011;68111;44.728;11.290;2023-06-10T08:17:08;16.98;;;11.90;;
78772;SDS011;68111;44.728;11.290;2023-06-10T08:19:35;13.73;;;12.10;;
78772;SDS011;68111;44.728;11.290;2023-06-10T08:22:01;16.45;;;10.73;;
78772;SDS011;68111;44.728;11.290;2023-06-10T08:24:28;14.93;;;10.82;;
78772;SDS011;68111;44.728;11.290;2023-06-10T08:26:55;15.13;;;10.82;;
78772;SDS011;68111;44.728;11.290;2023-06-10T08:29:23;13.60;;;10.50;;
78772;SDS011;68111;44.728;11.290;2023-06-10T08:31:50;15.50;;;11.35;;
78772;SDS011;68111;44.728;11.290;2023-06-10T08:34:16;13.13;;;10.60;;
78772;SDS011;68111;44.728;11.290;2023-06-10T08:36:43;16.55;;;12.38;;
78772;SDS011;68111;44.728;11.290;2023-06-10T08:39:11;15.90;;;11.80;;
78772;SDS011;68111;44.728;11.290;2023-06-10T08:41:40;16.52;;;12.27;;
78772;SDS011;68111;44.728;11.290;2023-06-10T08:44:16;17.08;;;11.93;;
78772;SDS011;68111;44.728;11.290;2023-06-10T08:46:47;14.43;;;10.60;;
78772;SDS011;68111;44.728;11.290;2023-06-10T08:49:17;13.10;;;10.70;;
78772;SDS011;68111;44.728;11.290;2023-06-10T08:51:48;13.68;;;9.60;;
78772;SDS011;68111;44.728;11.290;2023-06-10T08:54:24;13.20;;;10.15;;
78772;SDS011;68111;44.728;11.290;2023-06-10T08:56:54;13.68;;;9.90;;
78772;SDS011;68111;44.728;11.290;2023-06-10T08:59:22;14.73;;;10.77;;
78772;SDS011;68111;44.728;11.290;2023-06-10T09:01:52;14.38;;;10.38;;
78772;SDS011;68111;44.728;11.290;2023-06-10T09:04:19;12.10;;;8.95;;
78772;SDS011;68111;44.728;11.290;2023-06-10T09:06:47;12.40;;;8.63;;
78772;SDS011;68111;44.728;11.290;2023-06-10T09:09:16;10.93;;;8.63;;
78772;SDS011;68111;44.728;11.290;2023-06-10T09:11:44;11.13;;;7.82;;
78772;SDS011;68111;44.728;11.290;2023-06-10T09:14:10;13.73;;;8.68;;
78772;SDS011;68111;44.728;11.290;2023-06-10T09:16:39;13.18;;;9.90;;
78772;SDS011;68111;44.728;11.290;2023-06-10T09:19:07;14.60;;;9.90;;
78772;SDS011;68111;44.728;11.290;2023-06-10T09:21:39;12.60;;;10.35;;
78772;SDS011;68111;44.728;11.290;2023-06-10T09:24:06;15.65;;;12.13;;
78772;SDS011;68111;44.728;11.290;2023-06-10T09:26:33;15.60;;;11.02;;
78772;SDS011;68111;44.728;11.290;2023-06-10T09:29:03;14.07;;;10.73;;
78772;SDS011;68111;44.728;11.290;2023-06-10T09:31:35;12.90;;;10.25;;
78772;SDS011;68111;44.728;11.290;2023-06-10T09:34:10;11.50;;;7.07;;
78772;SDS011;68111;44.728;11.290;2023-06-10T09:36:39;9.35;;;6.10;;
78772;SDS011;68111;44.728;11.290;2023-06-10T09:39:13;9.93;;;6.35;;
78772;SDS011;68111;44.728;11.290;2023-06-10T09:41:45;11.85;;;7.05;;
78772;SDS011;68111;44.728;11.290;2023-06-10T09:44:15;10.20;;;6.78;;
78772;SDS011;68111;44.728;11.290;2023-06-10T09:46:48;8.77;;;5.63;;
78772;SDS011;68111;44.728;11.290;2023-06-10T09:49:17;9.98;;;6.00;;
78772;SDS011;68111;44.728;11.290;2023-06-10T09:51:53;6.45;;;3.85;;
78772;SDS011;68111;44.728;11.290;2023-06-10T09:54:20;5.53;;;2.95;;
78772;SDS011;68111;44.728;11.290;2023-06-10T09:56:48;4.32;;;2.80;;
78772;SDS011;68111;44.728;11.290;2023-06-10T09:59:29;7.40;;;4.10;;
78772;SDS011;68111;44.728;11.290;2023-06-10T10:01:58;6.15;;;3.47;;
78772;SDS011;68111;44.728;11.290;2023-06-10T10:04:27;7.03;;;3.75;;
78772;SDS011;68111;44.728;11.290;2023-06-10T10:06:55;9.23;;;3.58;;
78772;SDS011;68111;44.728;11.290;2023-06-10T10:09:22;6.10;;;3.45;;
78772;SDS011;68111;44.728;11.290;2023-06-10T10:11:49;6.05;;;3.80;;
78772;SDS011;68111;44.728;11.290;2023-06-10T10:14:18;7.95;;;3.90;;
78772;SDS011;68111;44.728;11.290;2023-06-10T10:16:46;9.40;;;4.70;;
78772;SDS011;68111;44.728;11.290;2023-06-10T10:19:16;9.25;;;5.03;;
78772;SDS011;68111;44.728;11.290;2023-06-10T10:21:50;8.60;;;4.78;;
78772;SDS011;68111;44.728;11.290;2023-06-10T10:24:23;7.40;;;4.72;;
78772;SDS011;68111;44.728;11.290;2023-06-10T10:27:00;8.52;;;4.53;;
78772;SDS011;68111;44.728;11.290;2023-06-10T10:29:33;8.55;;;5.07;;
78772;SDS011;68111;44.728;11.290;2023-06-10T10:32:05;9.48;;;4.60;;
78772;SDS011;68111;44.728;11.290;2023-06-10T10:34:35;6.68;;;3.00;;
78772;SDS011;68111;44.728;11.290;2023-06-10T10:37:09;6.32;;;2.25;;
78772;SDS011;68111;44.728;11.290;2023-06-10T10:39:36;5.90;;;2.65;;
78772;SDS011;68111;44.728;11.290;2023-06-10T10:42:03;4.38;;;2.10;;
78772;SDS011;68111;44.728;11.290;2023-06-10T10:44:32;5.88;;;2.13;;
78772;SDS011;68111;44.728;11.290;2023-06-10T10:46:59;5.10;;;1.90;;
78772;SDS011;68111;44.728;11.290;2023-06-10T10:49:30;4.00;;;1.92;;
78772;SDS011;68111;44.728;11.290;2023-06-10T10:52:00;5.55;;;1.98;;
78772;SDS011;68111;44.728;11.290;2023-06-10T10:54:29;5.07;;;2.30;;
78772;SDS011;68111;44.728;11.290;2023-06-10T10:57:14;6.22;;;2.20;;
78772;SDS011;68111;44.728;11.290;2023-06-10T11:02:18;5.07;;;1.92;;
78772;SDS011;68111;44.728;11.290;2023-06-10T11:04:58;5.10;;;1.98;;
78772;SDS011;68111;44.728;11.290;2023-06-10T11:07:27;5.57;;;2.03;;
78772;SDS011;68111;44.728;11.290;2023-06-10T11:10:00;4.88;;;2.17;;
78772;SDS011;68111;44.728;11.290;2023-06-10T11:12:42;5.28;;;2.28;;
78772;SDS011;68111;44.728;11.290;2023-06-10T11:15:27;5.68;;;1.98;;
78772;SDS011;68111;44.728;11.290;2023-06-10T11:26:13;7.15;;;2.47;;
78772;SDS011;68111;44.728;11.290;2023-06-10T11:29:02;7.10;;;2.25;;
78772;SDS011;68111;44.728;11.290;2023-06-10T11:31:32;7.07;;;2.25;;
78772;SDS011;68111;44.728;11.290;2023-06-10T11:34:03;6.32;;;2.65;;
78772;SDS011;68111;44.728;11.290;2023-06-10T11:36:36;5.75;;;2.47;;
78772;SDS011;68111;44.728;11.290;2023-06-10T11:39:06;6.15;;;2.40;;
78772;SDS011;68111;44.728;11.290;2023-06-10T11:41:34;7.03;;;2.70;;
78772;SDS011;68111;44.728;11.290;2023-06-10T11:44:07;7.28;;;2.80;;
78772;SDS011;68111;44.728;11.290;2023-06-10T11:46:35;7.25;;;2.85;;
78772;SDS011;68111;44.728;11.290;2023-06-10T11:49:03;8.35;;;2.72;;
78772;SDS011;68111;44.728;11.290;2023-06-10T11:51:35;4.95;;;2.35;;
78772;SDS011;68111;44.728;11.290;2023-06-10T11:54:04;4.15;;;2.40;;
78772;SDS011;68111;44.728;11.290;2023-06-10T11:56:31;6.80;;;2.40;;
78772;SDS011;68111;44.728;11.290;2023-06-10T12:01:31;6.70;;;2.67;;
78772;SDS011;68111;44.728;11.290;2023-06-10T12:04:06;7.28;;;2.97;;
78772;SDS011;68111;44.728;11.290;2023-06-10T12:06:53;5.95;;;3.03;;
78772;SDS011;68111;44.728;11.290;2023-06-10T12:09:26;9.30;;;3.20;;
78772;SDS011;68111;44.728;11.290;2023-06-10T12:11:57;6.93;;;3.30;;
78772;SDS011;68111;44.728;11.290;2023-06-10T12:17:21;7.22;;;3.72;;
78772;SDS011;68111;44.728;11.290;2023-06-10T12:19:49;7.82;;;3.88;;
78772;SDS011;68111;44.728;11.290;2023-06-10T12:22:17;8.57;;;4.35;;
78772;SDS011;68111;44.728;11.290;2023-06-10T12:24:56;8.85;;;4.43;;
78772;SDS011;68111;44.728;11.290;2023-06-10T12:27:28;10.88;;;5.00;;
78772;SDS011;68111;44.728;11.290;2023-06-10T12:29:56;8.68;;;4.68;;
78772;SDS011;68111;44.728;11.290;2023-06-10T12:32:38;13.75;;;5.35;;
78772;SDS011;68111;44.728;11.290;2023-06-10T12:35:07;13.75;;;6.07;;
78772;SDS011;68111;44.728;11.290;2023-06-10T12:37:36;12.23;;;5.78;;
78772;SDS011;68111;44.728;11.290;2023-06-10T12:40:08;9.70;;;5.78;;
78772;SDS011;68111;44.728;11.290;2023-06-10T12:42:36;10.77;;;5.65;;
78772;SDS011;68111;44.728;11.290;2023-06-10T12:45:04;10.25;;;5.63;;
78772;SDS011;68111;44.728;11.290;2023-06-10T12:47:35;11.48;;;6.00;;
78772;SDS011;68111;44.728;11.290;2023-06-10T12:50:06;12.85;;;7.10;;
78772;SDS011;68111;44.728;11.290;2023-06-10T12:52:34;14.02;;;6.97;;
78772;SDS011;68111;44.728;11.290;2023-06-10T12:55:01;9.73;;;6.25;;
78772;SDS011;68111;44.728;11.290;2023-06-10T12:57:28;12.05;;;6.70;;
78772;SDS011;68111;44.728;11.290;2023-06-10T12:59:56;10.90;;;6.95;;
78772;SDS011;68111;44.728;11.290;2023-06-10T13:02:29;9.60;;;6.60;;
78772;SDS011;68111;44.728;11.290;2023-06-10T13:04:56;11.75;;;6.65;;
78772;SDS011;68111;44.728;11.290;2023-06-10T13:07:23;10.73;;;6.63;;
78772;SDS011;68111;44.728;11.290;2023-06-10T13:09:50;11.25;;;6.65;;
78772;SDS011;68111;44.728;11.290;2023-06-10T13:12:17;8.98;;;6.22;;
78772;SDS011;68111;44.728;11.290;2023-06-10T13:14:52;15.25;;;6.65;;
78772;SDS011;68111;44.728;11.290;2023-06-10T13:17:20;9.32;;;4.90;;
78772;SDS011;68111;44.728;11.290;2023-06-10T13:20:06;8.05;;;4.80;;
78772;SDS011;68111;44.728;11.290;2023-06-10T13:22:34;7.28;;;3.70;;
78772;SDS011;68111;44.728;11.290;2023-06-10T13:25:03;8.82;;;3.50;;
78772;SDS011;68111;44.728;11.290;2023-06-10T13:27:31;6.20;;;3.45;;
78772;SDS011;68111;44.728;11.290;2023-06-10T13:29:58;8.20;;;3.75;;
78772;SDS011;68111;44.728;11.290;2023-06-10T13:32:24;7.25;;;4.15;;
78772;SDS011;68111;44.728;11.290;2023-06-10T13:34:51;8.57;;;3.90;;
78772;SDS011;68111;44.728;11.290;2023-06-10T13:37:19;8.27;;;4.35;;
78772;SDS011;68111;44.728;11.290;2023-06-10T13:39:46;8.63;;;4.05;;
78772;SDS011;68111;44.728;11.290;2023-06-10T13:42:20;8.50;;;3.95;;
78772;SDS011;68111;44.728;11.290;2023-06-10T13:44:47;8.90;;;4.27;;
78772;SDS011;68111;44.728;11.290;2023-06-10T13:47:14;9.30;;;4.32;;
78772;SDS011;68111;44.728;11.290;2023-06-10T13:49:41;8.25;;;4.40;;
78772;SDS011;68111;44.728;11.290;2023-06-10T13:52:08;9.57;;;4.13;;
78772;SDS011;68111;44.728;11.290;2023-06-10T13:54:35;9.20;;;4.38;;
78772;SDS011;68111;44.728;11.290;2023-06-10T13:57:04;8.68;;;4.45;;
78772;SDS011;68111;44.728;11.290;2023-06-10T13:59:31;8.23;;;3.75;;
78772;SDS011;68111;44.728;11.290;2023-06-10T14:01:58;7.90;;;4.13;;
78772;SDS011;68111;44.728;11.290;2023-06-10T14:04:25;8.73;;;4.18;;
78772;SDS011;68111;44.728;11.290;2023-06-10T14:06:51;8.20;;;4.00;;
78772;SDS011;68111;44.728;11.290;2023-06-10T14:09:18;9.55;;;4.60;;
78772;SDS011;68111;44.728;11.290;2023-06-10T14:11:45;9.60;;;4.13;;
78772;SDS011;68111;44.728;11.290;2023-06-10T14:14:12;7.63;;;4.00;;
78772;SDS011;68111;44.728;11.290;2023-06-10T14:16:40;10.38;;;3.72;;
78772;SDS011;68111;44.728;11.290;2023-06-10T14:19:09;8.57;;;3.58;;
78772;SDS011;68111;44.728;11.290;2023-06-10T14:21:35;8.00;;;3.53;;
78772;SDS011;68111;44.728;11.290;2023-06-10T14:24:02;8.40;;;3.70;;
78772;SDS011;68111;44.728;11.290;2023-06-10T14:26:29;10.07;;;4.00;;
78772;SDS011;68111;44.728;11.290;2023-06-10T14:28:56;9.88;;;5.35;;
78772;SDS011;68111;44.728;11.290;2023-06-10T14:31:22;11.80;;;5.75;;
78772;SDS011;68111;44.728;11.290;2023-06-10T14:33:49;9.60;;;4.90;;
78772;SDS011;68111;44.728;11.290;2023-06-10T14:36:16;11.07;;;6.15;;
78772;SDS011;68111;44.728;11.290;2023-06-10T14:38:43;8.55;;;5.22;;
78772;SDS011;68111;44.728;11.290;2023-06-10T14:41:09;10.20;;;4.78;;
78772;SDS011;68111;44.728;11.290;2023-06-10T14:43:36;9.80;;;4.88;;
78772;SDS011;68111;44.728;11.290;2023-06-10T14:46:21;7.35;;;4.72;;
78772;SDS011;68111;44.728;11.290;2023-06-10T14:48:48;12.13;;;5.68;;
78772;SDS011;68111;44.728;11.290;2023-06-10T14:51:15;9.13;;;5.35;;